Flight Track Log - Related Links

Times and Time Zones

All times are in EDT time to prevent confusion due to time zone crossing. See the UAL582 flight status page for this flight to view local times or setup timezone preferences in your user account.

Time Position Orientation Groundspeed Altitude Reporting Facility
EDT Latitude Longitude Course Direction KTS MPH feet Rate Location/Type
Fri 05:46:38 PM 43.6833 -79.5667 253° West 160 184 1,800  Level Toronto Center
Fri 05:47:38 PM 43.7167 -79.5000 55° Northeast 230 265 3,900 2,250 Climbing Toronto Center
Fri 05:48:38 PM 43.7833 -79.5000 360° North 270 311 6,300 3,000 Climbing Toronto Center
Fri 05:49:00 PM 43.7179 -80.2306 277° West  Level FlightAware Approximate
Fri 05:49:38 PM 43.8500 -79.5333 340° North 260 299 9,900  Level Toronto Center
Fri 05:50:00 PM 43.7292 -80.3538 277° West  Level FlightAware Approximate
Fri 05:50:38 PM 43.8500 -79.6500 270° West 290 334 11,800  Level Toronto Center
Fri 05:51:00 PM 43.7334 -80.4777 270° West  Level FlightAware Approximate
Fri 05:51:38 PM 43.8333 -79.7667 259° West 310 357 14,800  Level Toronto Center
Fri 05:52:00 PM 43.7200 -80.6116 253° West  Level FlightAware Approximate
Fri 05:52:38 PM 43.8167 -79.8833 259° West 330 380 17,000  Level Toronto Center
Fri 05:53:38 PM 43.8000 -80.0333 261° West 340 391 19,500 2,050 Climbing Toronto Center
Fri 05:54:38 PM 43.7833 -80.1667 260° West 370 426 21,100 1,750 Climbing Toronto Center
Fri 05:55:38 PM 43.7667 -80.3000 260° West 380 437 23,000 1,700 Climbing Toronto Center
Fri 05:56:38 PM 43.7500 -80.4667 262° West 390 449 24,500 1,850 Climbing Toronto Center
Fri 05:57:38 PM 43.7333 -80.6000 260° West 400 460 26,700 1,900 Climbing Toronto Center
Fri 05:58:38 PM 43.7000 -80.7667 255° West 390 449 28,300 1,400 Climbing Toronto Center
Fri 05:59:38 PM 43.6500 -80.9000 243° Southwest 390 449 29,500 1,800 Climbing Toronto Center
Fri 06:00:38 PM 43.6167 -81.0167 248° West 380 437 31,900 2,050 Climbing Toronto Center
Fri 06:01:38 PM 43.6000 -81.1833 262° West 370 426 33,600 1,550 Climbing Toronto Center
Fri 06:02:38 PM 43.5667 -81.2833 245° Southwest 360 414 35,000 1,450 Climbing Toronto Center
Fri 06:03:38 PM 43.5333 -81.4333 253° West 350 403 36,500 1,250 Climbing Toronto Center
Fri 06:04:38 PM 43.5167 -81.5333 257° West 350 403 37,500 750 Climbing Toronto Center
Fri 06:05:38 PM 43.4833 -81.6833 253° West 350 403 38,000 250 Climbing Toronto Center
Fri 06:06:38 PM 43.4667 -81.8167 260° West 360 414 38,000  Level Toronto Center
Fri 06:07:38 PM 43.4167 -81.9500 243° Southwest 370 426 38,000  Level Toronto Center
Fri 06:08:38 PM 43.3833 -82.0833 251° West 370 426 38,000  Level Toronto Center
Fri 06:09:38 PM 43.3500 -82.2167 251° West 370 426 38,000  Level Toronto Center
Fri 06:10:38 PM 43.3333 -82.3667 261° West 370 426 38,000 -100 Level Toronto Center
Fri 06:11:38 PM 43.3000 -82.5000 251° West 370 426 37,800 -466 Descending Toronto Center
Fri 06:12:34 PM 43.2756 -82.6306 256° West 375 432 37,100 -776 Descending Cleveland Center
Fri 06:13:34 PM 43.2419 -82.7661 251° West 375 432 36,300 -850 Descending Cleveland Center
Fri 06:14:34 PM 43.2058 -82.9017 250° West 381 438 35,400 -950 Descending Cleveland Center
Fri 06:15:34 PM 43.1656 -83.0367 248° West 381 438 34,400 -950 Descending Cleveland Center
Fri 06:16:34 PM 43.1275 -83.1661 248° West 387 445 33,500 -950 Descending Cleveland Center
Fri 06:17:34 PM 43.0906 -83.3125 251° West 387 445 32,500 -1,000 Descending Cleveland Center
Fri 06:18:34 PM 43.0519 -83.4472 249° West 387 445 31,500 -950 Descending Cleveland Center
Fri 06:19:34 PM 43.0086 -83.5900 248° West 392 451 30,600 -950 Descending Cleveland Center
Fri 06:20:34 PM 42.9717 -83.7300 250° West 392 451 29,600 -950 Descending Cleveland Center
Fri 06:21:34 PM 42.9533 -83.8681 260° West 400 460 28,700 -1,000 Descending Cleveland Center
Fri 06:22:34 PM 42.9383 -84.0233 263° West 405 466 27,600 -880 Descending Cleveland Center
Fri 06:24:38 PM 42.9000 -84.3500 261° West 410 472 26,000 -662 Descending Toronto Center
Fri 06:24:59 PM 42.9011 -84.4069 272° West 411 473 26,000  Level Chicago Center
Fri 06:26:01 PM 42.8856 -84.5628 262° West 414 476 26,000  Level Chicago Center
Fri 06:27:03 PM 42.8697 -84.7211 262° West 422 486 26,000  Level Chicago Center
Fri 06:28:05 PM 42.8531 -84.8808 262° West 426 490 26,000  Level Chicago Center
Fri 06:29:07 PM 42.8356 -85.0397 262° West 425 489 26,000  Level Chicago Center
Fri 06:30:09 PM 42.8144 -85.2342 262° West 430 495 26,000  Level Chicago Center
Fri 06:31:11 PM 42.7969 -85.3986 262° West 435 501 26,000 -145 Level Chicago Center
Fri 06:32:13 PM 42.7753 -85.5622 260° West 437 503 25,700 -726 Descending Chicago Center
Fri 06:33:15 PM 42.7453 -85.7231 256° West 435 501 24,500 -1,210 Descending Chicago Center
Fri 06:34:17 PM 42.7178 -85.8794 257° West 427 491 23,200 -1,210 Descending Chicago Center
Fri 06:35:19 PM 42.6917 -86.0208 256° West 390 449 22,000 -1,258 Descending Chicago Center
Fri 06:36:21 PM 42.6658 -86.1622 256° West 384 442 20,600 -1,065 Descending Chicago Center
Fri 06:37:23 PM 42.6400 -86.3008 256° West 379 436 19,800 -1,296 Descending Chicago Center
Fri 06:38:26 PM 42.6094 -86.4642 256° West 374 430 17,900 -1,680 Descending Chicago Center
Fri 06:39:28 PM 42.5825 -86.5994 255° West 372 428 16,300 -1,548 Descending Chicago Center
Fri 06:40:30 PM 42.5597 -86.7336 257° West 366 421 14,700 -1,597 Descending Chicago Center
Fri 06:41:32 PM 42.5244 -86.8608 249° West 362 417 13,000 -1,597 Descending Chicago Center
Fri 06:42:34 PM 42.4903 -86.9831 249° West 351 404 11,400 -1,452 Descending Chicago Center
Fri 06:43:36 PM 42.4567 -87.1036 249° West 345 397 10,000 -677 Descending Chicago Center
Fri 06:44:38 PM 42.4164 -87.2508 250° West 347 399 10,000  Level Chicago Center
Fri 06:45:40 PM 42.3836 -87.3703 250° West 342 394 10,000  Level Chicago Center
Fri 06:46:42 PM 42.3533 -87.4797 250° West 342 394 10,000  Level Chicago Center
Fri 06:47:45 PM 42.2808 -87.5944 230° Southwest 343 395 10,000 -435 Level Chicago Center
Fri 06:48:46 PM 42.2144 -87.6656 218° Southwest 305 351 9,100 -1,258 Descending Chicago Center
Fri 06:49:49 PM 42.1506 -87.7325 218° Southwest 293 337 7,400 -1,212 Descending Chicago Center
Fri 06:50:30 PM 42.1000 -87.7833 217° Southwest 288 331 7,000 -224 Descending Chicago TRACON
Fri 06:51:36 PM 42.0833 -87.9000 259° West 271 312 7,000  Level Chicago TRACON
Fri 06:52:31 PM 42.0833 -87.9833 270° West 233 268 7,000 -298 Level Chicago TRACON
Fri 06:53:37 PM 42.0833 -88.0667 270° West 231 266 6,400 -750 Descending Chicago TRACON
Fri 06:54:31 PM 42.0667 -88.1500 255° West 228 262 5,500 -951 Descending Chicago TRACON
Fri 06:54:59 PM 42.0681 -88.1797 274° West 229 264 5,100 -333 Descending Chicago Center
Fri 06:56:01 PM 42.0622 -88.2667 265° West 233 268 5,000 -48 Descending Chicago Center
Fri 06:57:03 PM 42.0564 -88.3450 264° West 223 257 5,000  Level Chicago Center
Fri 06:58:05 PM 42.0275 -88.4050 237° Southwest 209 241 5,000  Level Chicago Center
Fri 06:59:07 PM 41.9739 -88.4014 177° South 199 229 5,000  Level Chicago Center
Fri 07:00:09 PM 41.9664 -88.3331 98° East 189 217 5,000  Level Chicago Center
Fri 07:01:12 PM 41.9672 -88.2664 89° East 179 206 5,000 -144 Level Chicago Center
Fri 07:02:14 PM 41.9672 -88.1986 90° East 182 209 4,700 -726 Descending Chicago Center
Fri 07:03:16 PM 41.9683 -88.1211 89° East 177 204 3,500 -1,157 Descending Chicago Center
Fri 07:03:37 PM 41.9667 -88.1000 96° East 175 201 3,100 -951 Descending Chicago TRACON
Fri 07:04:38 PM 41.9667 -88.0333 90° East 166 191 2,200 -843 Descending Chicago TRACON
Fri 07:05:38 PM 41.9667 -87.9833 90° East 135 155 1,400 -800 Descending Chicago TRACON

Login

Don't have an account? Register now (free) for customized features, flight alerts, and more!